createdAt,value
2023-03-13T00:02:00.200Z,0.70
2023-03-13T00:04:27.765Z,0.70
2023-03-13T00:06:54.946Z,0.60
2023-03-13T00:09:23.536Z,0.60
2023-03-13T00:11:50.762Z,0.80
2023-03-13T00:14:18.194Z,0.60
2023-03-13T00:16:45.548Z,0.60
2023-03-13T00:19:12.991Z,0.50
2023-03-13T00:21:41.393Z,0.50
2023-03-13T00:24:11.285Z,0.50
2023-03-13T00:26:38.481Z,0.50
2023-03-13T00:29:06.332Z,0.40
2023-03-13T00:31:33.599Z,0.50
2023-03-13T00:34:03.181Z,0.50
2023-03-13T00:36:33.408Z,0.40
2023-03-13T00:39:04.438Z,0.80
2023-03-13T00:41:33.221Z,0.60
2023-03-13T00:44:00.901Z,0.40
2023-03-13T00:46:29.693Z,0.40
2023-03-13T00:48:58.021Z,0.50
2023-03-13T00:51:27.250Z,0.50
2023-03-13T00:54:00.503Z,0.50
2023-03-13T00:56:28.313Z,0.50
2023-03-13T00:58:56.259Z,0.50
2023-03-13T01:01:26.102Z,0.60
2023-03-13T01:03:59.031Z,0.50
2023-03-13T01:06:29.115Z,0.60
2023-03-13T01:08:59.799Z,0.60
2023-03-13T01:11:31.114Z,0.60
2023-03-13T01:14:01.420Z,0.60
2023-03-13T01:16:30.841Z,0.60
2023-03-13T01:19:01.678Z,0.60
2023-03-13T01:21:29.406Z,0.60
2023-03-13T01:23:57.602Z,0.60
2023-03-13T01:26:25.871Z,0.60
2023-03-13T01:28:55.065Z,0.60
2023-03-13T01:31:23.880Z,0.60
2023-03-13T01:33:55.028Z,0.70
2023-03-13T01:36:22.852Z,1.10
2023-03-13T01:38:52.738Z,0.60
2023-03-13T01:41:21.242Z,0.60
2023-03-13T01:43:49.419Z,0.70
2023-03-13T01:46:25.030Z,0.80
2023-03-13T01:49:24.463Z,0.50
2023-03-13T01:52:10.327Z,0.50
2023-03-13T01:54:51.869Z,0.50
2023-03-13T01:57:27.127Z,0.40
2023-03-13T02:00:16.485Z,0.50
2023-03-13T02:02:48.623Z,0.40
2023-03-13T02:05:19.316Z,0.40
2023-03-13T02:07:53.830Z,0.40
2023-03-13T02:10:23.026Z,0.80
2023-03-13T02:12:51.100Z,0.30
2023-03-13T02:15:22.422Z,0.30
2023-03-13T02:17:50.654Z,0.30
2023-03-13T02:20:24.103Z,0.30
2023-03-13T02:23:12.850Z,0.30
2023-03-13T02:25:47.337Z,0.30
2023-03-13T02:28:21.958Z,0.30
2023-03-13T02:30:54.311Z,0.20
2023-03-13T02:33:22.947Z,0.30
2023-03-13T02:35:54.021Z,0.20
2023-03-13T02:38:25.394Z,1.80
2023-03-13T02:40:54.364Z,0.30
2023-03-13T02:43:27.997Z,0.30
2023-03-13T02:46:17.684Z,0.30
2023-03-13T02:48:53.489Z,0.40
2023-03-13T02:51:33.247Z,0.40
2023-03-13T02:54:07.058Z,0.40
2023-03-13T02:56:37.941Z,0.40
2023-03-13T02:59:07.240Z,0.50
2023-03-13T03:01:38.959Z,1.00
2023-03-13T03:04:06.315Z,1.00
2023-03-13T03:06:33.818Z,0.60
2023-03-13T03:09:03.830Z,0.50
2023-03-13T03:11:34.780Z,0.60
2023-03-13T03:14:07.671Z,0.60
2023-03-13T03:16:39.676Z,0.60
2023-03-13T03:19:07.110Z,0.60
2023-03-13T03:21:35.762Z,0.70
2023-03-13T03:24:03.737Z,0.70
2023-03-13T03:26:31.197Z,0.80
2023-03-13T03:28:58.635Z,0.80
2023-03-13T03:31:26.772Z,0.90
2023-03-13T03:33:56.854Z,0.90
2023-03-13T03:36:24.810Z,0.90
2023-03-13T03:38:52.681Z,0.90
2023-03-13T03:41:24.937Z,1.00
2023-03-13T03:43:54.189Z,1.80
2023-03-13T03:46:38.212Z,1.00
2023-03-13T03:49:05.404Z,1.30
2023-03-13T03:51:35.396Z,1.10
2023-03-13T03:54:03.024Z,1.10
2023-03-13T03:56:32.834Z,1.10
2023-03-13T03:59:01.118Z,1.00
2023-03-13T04:02:01.102Z,1.10
2023-03-13T04:04:30.324Z,1.10
2023-03-13T04:07:05.210Z,1.20
2023-03-13T04:09:33.907Z,1.20
2023-03-13T04:12:03.285Z,1.30
2023-03-13T04:14:35.189Z,1.20
2023-03-13T04:17:05.803Z,1.30
2023-03-13T04:19:33.372Z,1.30
2023-03-13T04:22:01.549Z,1.30
2023-03-13T04:24:28.689Z,1.30
2023-03-13T04:26:57.824Z,1.40
2023-03-13T04:29:26.097Z,1.40
2023-03-13T04:32:10.392Z,1.40
2023-03-13T04:35:00.854Z,1.40
2023-03-13T04:37:47.414Z,1.40
2023-03-13T04:40:23.701Z,1.50
2023-03-13T04:43:11.356Z,1.50
2023-03-13T04:45:51.624Z,1.50
2023-03-13T04:48:42.122Z,1.50
2023-03-13T04:51:28.247Z,1.50
2023-03-13T04:54:26.114Z,1.60
2023-03-13T04:56:59.994Z,1.50
2023-03-13T04:59:27.428Z,1.50
2023-03-13T05:02:17.331Z,1.60
2023-03-13T05:05:04.288Z,1.60
2023-03-13T05:07:49.981Z,1.60
2023-03-13T05:10:49.825Z,1.60
2023-03-13T05:13:39.929Z,1.70
2023-03-13T05:16:27.880Z,1.70
2023-03-13T05:19:28.251Z,1.70
2023-03-13T05:22:16.330Z,1.80
2023-03-13T05:24:55.108Z,1.80
2023-03-13T05:27:28.353Z,1.80
2023-03-13T05:30:26.355Z,1.90
2023-03-13T05:33:09.098Z,1.90
2023-03-13T05:35:43.615Z,1.90
2023-03-13T05:38:24.787Z,1.90
2023-03-13T05:41:12.027Z,1.90
2023-03-13T05:43:57.965Z,2.00
2023-03-13T05:46:54.407Z,2.00
2023-03-13T05:49:43.328Z,2.10
2023-03-13T05:52:33.407Z,2.10
2023-03-13T05:55:11.746Z,2.10
2023-03-13T05:58:14.404Z,2.20
2023-03-13T06:01:12.615Z,2.20
2023-03-13T06:03:40.136Z,2.30
2023-03-13T06:06:09.504Z,2.30
2023-03-13T06:08:45.321Z,2.40
2023-03-13T06:11:13.614Z,2.40
2023-03-13T06:13:41.000Z,2.40
2023-03-13T06:16:26.811Z,2.40
2023-03-13T06:18:58.416Z,2.50
2023-03-13T06:21:26.125Z,2.50
2023-03-13T06:23:55.122Z,2.50
2023-03-13T06:26:24.469Z,2.60
2023-03-13T06:28:52.034Z,2.60
2023-03-13T06:31:19.574Z,2.70
2023-03-13T06:33:48.203Z,2.70
2023-03-13T06:36:16.989Z,2.70
2023-03-13T06:38:44.311Z,2.70
2023-03-13T06:41:11.763Z,2.80
2023-03-13T06:43:40.833Z,2.80
2023-03-13T06:46:14.144Z,3.00
2023-03-13T06:48:41.319Z,2.90
2023-03-13T06:51:12.896Z,2.90
2023-03-13T06:53:40.467Z,3.00
2023-03-13T06:56:08.993Z,3.00
2023-03-13T06:58:36.540Z,3.10
2023-03-13T07:01:12.026Z,3.10
2023-03-13T07:03:41.380Z,3.20
2023-03-13T07:06:09.794Z,3.20
2023-03-13T07:08:37.516Z,3.20
2023-03-13T07:11:08.664Z,3.30
2023-03-13T07:13:36.576Z,3.30
2023-03-13T07:16:09.659Z,3.30
2023-03-13T07:18:38.275Z,3.30
2023-03-13T07:21:05.799Z,3.30
2023-03-13T07:23:35.146Z,3.30
2023-03-13T07:26:05.705Z,3.30
2023-03-13T07:28:35.572Z,3.30
2023-03-13T07:31:10.658Z,3.30
2023-03-13T07:33:38.172Z,3.30
2023-03-13T07:36:06.206Z,3.40
2023-03-13T07:38:33.483Z,3.40
2023-03-13T07:41:01.299Z,3.40
2023-03-13T07:43:29.644Z,3.40
2023-03-13T07:45:58.788Z,3.40
2023-03-13T07:48:33.032Z,3.40
2023-03-13T07:51:01.008Z,3.40
2023-03-13T07:53:28.667Z,3.40
2023-03-13T07:55:59.149Z,3.50
2023-03-13T07:58:32.129Z,3.50
2023-03-13T08:01:00.151Z,3.40
2023-03-13T08:03:27.776Z,3.40
2023-03-13T08:06:02.982Z,3.40
2023-03-13T08:08:30.524Z,3.40
2023-03-13T08:11:06.601Z,3.40
2023-03-13T08:13:34.704Z,3.40
2023-03-13T08:16:10.407Z,3.40
2023-03-13T08:18:39.129Z,3.50
2023-03-13T08:21:09.104Z,3.50
2023-03-13T08:23:36.954Z,3.50
2023-03-13T08:26:13.097Z,3.60
2023-03-13T08:28:41.194Z,3.70
2023-03-13T08:31:11.884Z,3.70
2023-03-13T08:33:39.588Z,3.80
2023-03-13T08:36:18.149Z,3.90
2023-03-13T08:38:46.794Z,3.90
2023-03-13T08:41:16.521Z,4.00
2023-03-13T08:43:44.414Z,4.10
2023-03-13T08:46:12.256Z,4.10
2023-03-13T08:48:39.610Z,4.20
2023-03-13T08:51:09.624Z,4.20
2023-03-13T08:53:37.945Z,4.20
2023-03-13T08:56:06.186Z,4.30
2023-03-13T08:58:33.770Z,4.40
2023-03-13T09:01:06.418Z,4.50
2023-03-13T09:03:33.978Z,4.50
2023-03-13T09:06:02.686Z,4.60
2023-03-13T09:08:31.136Z,4.60
2023-03-13T09:11:00.573Z,4.60
2023-03-13T09:13:29.092Z,4.70
2023-03-13T09:16:11.734Z,4.70
2023-03-13T09:18:39.541Z,4.80
2023-03-13T09:21:09.498Z,4.90
2023-03-13T09:23:36.670Z,5.00
2023-03-13T09:26:04.842Z,5.00
2023-03-13T09:28:32.286Z,5.10
2023-03-13T09:31:14.671Z,5.20
2023-03-13T09:33:43.211Z,5.30
2023-03-13T09:36:11.603Z,5.30
2023-03-13T09:38:39.617Z,5.40
2023-03-13T09:41:26.297Z,5.50
2023-03-13T09:44:08.300Z,5.60
2023-03-13T09:46:38.494Z,5.70
2023-03-13T09:49:14.016Z,5.80
2023-03-13T09:51:44.425Z,5.90
2023-03-13T09:54:31.530Z,5.90
2023-03-13T09:57:00.382Z,6.00
2023-03-13T09:59:48.535Z,6.00
2023-03-13T10:02:27.039Z,6.10
2023-03-13T10:05:09.945Z,6.10
2023-03-13T10:07:37.768Z,6.10
2023-03-13T10:10:12.698Z,6.20
2023-03-13T10:12:45.028Z,6.20
2023-03-13T10:15:30.099Z,6.20
2023-03-13T10:18:00.241Z,6.30
2023-03-13T10:20:33.728Z,6.30
2023-03-13T10:23:15.584Z,6.40
2023-03-13T10:25:42.844Z,6.50
2023-03-13T10:28:13.248Z,6.50
2023-03-13T10:30:47.088Z,6.60
2023-03-13T10:33:17.731Z,6.60
2023-03-13T10:35:45.231Z,6.70
2023-03-13T10:38:17.512Z,6.80
2023-03-13T10:40:57.712Z,6.80
2023-03-13T10:43:26.628Z,6.90
2023-03-13T10:45:54.126Z,6.90
2023-03-13T10:48:25.092Z,7.00
2023-03-13T10:50:57.547Z,7.10
2023-03-13T10:53:30.968Z,7.20
2023-03-13T10:56:12.190Z,7.30
2023-03-13T10:58:48.283Z,7.40
2023-03-13T11:01:16.400Z,7.50
2023-03-13T11:03:45.757Z,7.50
2023-03-13T11:06:28.975Z,7.50
2023-03-13T11:09:13.475Z,7.60
2023-03-13T11:12:10.591Z,7.60
2023-03-13T11:14:38.589Z,7.70
2023-03-13T11:17:31.888Z,7.70
2023-03-13T11:20:21.400Z,7.80
2023-03-13T11:22:55.803Z,7.90
2023-03-13T11:25:39.257Z,7.90
2023-03-13T11:28:29.151Z,8.00
2023-03-13T11:31:14.668Z,8.00
2023-03-13T11:34:03.142Z,8.00
2023-03-13T11:36:50.873Z,8.00
2023-03-13T11:39:33.188Z,8.00
2023-03-13T11:42:42.483Z,8.00
2023-03-13T11:45:37.238Z,8.10
2023-03-13T11:48:29.494Z,8.20
2023-03-13T11:51:26.319Z,8.30
2023-03-13T11:53:53.783Z,8.40
2023-03-13T11:56:26.909Z,8.60
2023-03-13T11:59:02.864Z,8.70
2023-03-13T12:01:46.178Z,8.80
2023-03-13T12:04:39.399Z,9.00
2023-03-13T12:07:12.074Z,9.10
2023-03-13T12:09:42.524Z,9.20
2023-03-13T12:12:25.404Z,9.30
2023-03-13T12:14:56.586Z,9.30
2023-03-13T12:17:35.274Z,9.40
2023-03-13T12:20:09.157Z,9.40
2023-03-13T12:22:52.524Z,9.50
2023-03-13T12:25:32.731Z,9.60
2023-03-13T12:28:25.071Z,9.70
2023-03-13T12:31:17.546Z,9.60
2023-03-13T12:34:03.335Z,9.60
2023-03-13T12:37:01.405Z,9.50
2023-03-13T12:39:47.909Z,9.40
2023-03-13T12:42:24.668Z,9.40
2023-03-13T12:44:52.111Z,9.40
2023-03-13T12:48:27.305Z,9.30
2023-03-13T12:51:21.683Z,9.30
2023-03-13T12:54:13.042Z,9.30
2023-03-13T12:57:01.428Z,9.30
2023-03-13T12:59:48.338Z,9.40
2023-03-13T13:02:25.775Z,9.40
2023-03-13T13:04:55.232Z,9.40
2023-03-13T13:07:35.684Z,9.40
2023-03-13T13:10:12.073Z,9.40
2023-03-13T13:12:44.384Z,9.40
2023-03-13T13:15:26.991Z,9.40
2023-03-13T13:18:01.979Z,9.40
2023-03-13T13:20:36.863Z,9.30
2023-03-13T13:23:38.485Z,9.30
2023-03-13T13:26:36.344Z,9.20
2023-03-13T13:29:12.671Z,9.20
2023-03-13T13:31:46.561Z,9.10
2023-03-13T13:34:29.963Z,9.00
2023-03-13T13:37:23.619Z,9.00
2023-03-13T13:39:55.266Z,8.90
2023-03-13T13:42:36.704Z,8.90
2023-03-13T13:45:14.499Z,8.90
2023-03-13T13:47:44.848Z,8.90
2023-03-13T13:50:21.011Z,8.80
2023-03-13T13:52:50.179Z,8.80
2023-03-13T13:55:44.640Z,8.80
2023-03-13T13:58:32.623Z,8.80
2023-03-13T14:01:11.356Z,8.80
2023-03-13T14:03:43.165Z,8.80
2023-03-13T14:06:24.792Z,8.80
2023-03-13T14:08:57.353Z,8.80
2023-03-13T14:11:34.280Z,8.80
2023-03-13T14:14:27.783Z,8.80
2023-03-13T14:16:57.272Z,8.80
2023-03-13T14:19:31.237Z,8.80
2023-03-13T14:22:07.200Z,8.80
2023-03-13T14:24:35.645Z,8.70
2023-03-13T14:27:14.358Z,8.70
2023-03-13T14:29:42.219Z,8.70
2023-03-13T14:32:09.661Z,8.70
2023-03-13T14:34:37.159Z,8.70
2023-03-13T14:37:54.516Z,8.70
2023-03-13T14:40:25.831Z,8.70
2023-03-13T14:42:56.726Z,8.70
2023-03-13T14:45:34.661Z,8.70
2023-03-13T14:48:12.117Z,8.70
2023-03-13T14:50:39.757Z,8.70
2023-03-13T14:53:17.890Z,8.70
2023-03-13T14:55:46.152Z,8.80
2023-03-13T14:58:33.560Z,8.80
2023-03-13T15:01:33.425Z,8.70
2023-03-13T15:04:00.613Z,8.80
2023-03-13T15:06:28.318Z,8.80
2023-03-13T15:09:10.802Z,8.80
2023-03-13T15:11:42.698Z,8.80
2023-03-13T15:14:31.387Z,8.90
2023-03-13T15:16:58.888Z,8.90
2023-03-13T15:19:26.071Z,8.90
2023-03-13T15:21:54.784Z,9.00
2023-03-13T15:24:21.977Z,9.00
2023-03-13T15:26:49.506Z,9.00
2023-03-13T15:29:18.345Z,9.00
2023-03-13T15:31:46.334Z,9.10
2023-03-13T15:34:15.146Z,9.00
2023-03-13T15:36:42.707Z,9.10
2023-03-13T15:39:19.494Z,9.10
2023-03-13T15:41:46.997Z,9.10
2023-03-13T15:44:14.385Z,9.10
2023-03-13T15:46:41.963Z,9.10
2023-03-13T15:49:13.011Z,9.00
2023-03-13T15:51:40.553Z,9.00
2023-03-13T15:54:07.711Z,9.00
2023-03-13T15:56:38.745Z,9.00
2023-03-13T15:59:13.536Z,9.00
2023-03-13T16:01:41.694Z,9.00
2023-03-13T16:04:10.403Z,9.00
2023-03-13T16:06:38.226Z,9.00
2023-03-13T16:09:07.005Z,9.00
2023-03-13T16:11:34.833Z,9.00
2023-03-13T16:14:02.623Z,9.10
2023-03-13T16:16:36.951Z,9.10
2023-03-13T16:19:04.908Z,9.10
2023-03-13T16:21:34.741Z,9.10
2023-03-13T16:24:02.384Z,9.20
2023-03-13T16:26:31.988Z,9.20
2023-03-13T16:28:59.528Z,9.20
2023-03-13T16:31:30.004Z,9.20
2023-03-13T16:33:58.570Z,9.20
2023-03-13T16:36:31.629Z,9.20
2023-03-13T16:39:00.903Z,9.20
2023-03-13T16:41:29.362Z,9.20
2023-03-13T16:43:57.029Z,9.20
2023-03-13T16:47:05.547Z,9.20
2023-03-13T16:49:33.290Z,9.20
2023-03-13T16:52:00.750Z,9.20
2023-03-13T16:54:27.899Z,9.20
2023-03-13T16:56:55.316Z,9.20
2023-03-13T16:59:23.310Z,9.20
2023-03-13T17:01:50.814Z,9.20
2023-03-13T17:04:18.078Z,9.20
2023-03-13T17:06:46.152Z,9.10
2023-03-13T17:09:17.639Z,9.20
2023-03-13T17:11:45.546Z,9.10
2023-03-13T17:14:13.597Z,9.10
2023-03-13T17:16:45.764Z,9.10
2023-03-13T17:19:17.172Z,9.10
2023-03-13T17:21:44.779Z,9.00
2023-03-13T17:24:12.161Z,9.00
2023-03-13T17:26:39.977Z,9.00
2023-03-13T17:29:08.313Z,9.00
2023-03-13T17:31:38.711Z,9.00
2023-03-13T17:34:07.679Z,8.90
2023-03-13T17:36:36.124Z,8.90
2023-03-13T17:39:05.831Z,8.90
2023-03-13T17:41:35.230Z,8.90
2023-03-13T17:44:03.937Z,8.90
2023-03-13T17:46:38.165Z,8.90
2023-03-13T17:49:05.678Z,8.90
2023-03-13T17:51:34.878Z,8.90
2023-03-13T17:54:02.438Z,8.90
2023-03-13T17:56:38.736Z,8.90
2023-03-13T17:59:16.640Z,9.00
2023-03-13T18:01:45.237Z,8.90
2023-03-13T18:04:13.086Z,9.00
2023-03-13T18:06:45.832Z,9.00
2023-03-13T18:09:20.946Z,9.00
2023-03-13T18:11:49.345Z,9.00
2023-03-13T18:14:16.756Z,9.00
2023-03-13T18:16:50.532Z,9.00
2023-03-13T18:19:25.832Z,9.00
2023-03-13T18:21:55.368Z,9.00
2023-03-13T18:24:22.685Z,9.00
2023-03-13T18:26:50.276Z,9.00
2023-03-13T18:29:27.895Z,9.00
2023-03-13T18:31:58.701Z,9.00
2023-03-13T18:34:26.777Z,9.00
2023-03-13T18:36:54.839Z,9.00
2023-03-13T18:39:22.130Z,9.00
2023-03-13T18:41:52.357Z,9.00
2023-03-13T18:44:21.013Z,9.00
2023-03-13T18:46:49.099Z,9.00
2023-03-13T18:49:21.461Z,9.00
2023-03-13T18:51:50.650Z,9.00
2023-03-13T18:54:18.119Z,9.00
2023-03-13T18:56:47.472Z,9.00
2023-03-13T18:59:19.520Z,9.00
2023-03-13T19:01:48.530Z,9.00
2023-03-13T19:04:16.521Z,9.10
2023-03-13T19:06:45.935Z,9.00
2023-03-13T19:09:41.493Z,9.10
2023-03-13T19:12:05.639Z,9.10
2023-03-13T19:14:32.811Z,9.10
2023-03-13T19:17:00.301Z,9.10
2023-03-13T19:19:27.516Z,9.10
2023-03-13T19:21:57.620Z,9.10
2023-03-13T19:24:28.162Z,9.20
2023-03-13T19:26:58.627Z,9.20
2023-03-13T19:29:28.211Z,9.20
2023-03-13T19:31:55.834Z,9.20
2023-03-13T19:34:23.191Z,9.30
2023-03-13T19:36:53.074Z,9.30
2023-03-13T19:39:25.231Z,9.30
2023-03-13T19:41:53.607Z,9.30
2023-03-13T19:44:21.505Z,9.40
2023-03-13T19:46:49.135Z,9.40
2023-03-13T19:49:18.956Z,9.40
2023-03-13T19:51:47.255Z,9.40
2023-03-13T19:54:15.329Z,9.50
2023-03-13T19:56:47.854Z,9.50
2023-03-13T19:59:20.875Z,9.50
2023-03-13T20:01:48.459Z,9.50
2023-03-13T20:04:15.883Z,9.50
2023-03-13T20:06:44.322Z,9.50
2023-03-13T20:09:15.151Z,9.50
2023-03-13T20:11:43.646Z,9.50
2023-03-13T20:14:11.460Z,9.60
2023-03-13T20:16:39.162Z,9.60
2023-03-13T20:19:07.550Z,9.60
2023-03-13T20:21:37.459Z,9.60
2023-03-13T20:24:04.938Z,9.60
2023-03-13T20:26:32.838Z,9.70
2023-03-13T20:29:00.221Z,9.60
2023-03-13T20:31:30.277Z,9.70
2023-03-13T20:33:58.099Z,9.60
2023-03-13T20:36:25.971Z,9.70
2023-03-13T20:38:53.534Z,9.60
2023-03-13T20:41:24.923Z,9.70
2023-03-13T20:43:52.951Z,9.70
2023-03-13T20:46:21.402Z,9.70
2023-03-13T20:48:49.194Z,9.70
2023-03-13T20:51:17.362Z,9.70
2023-03-13T20:53:44.804Z,9.70
2023-03-13T20:56:12.552Z,9.60
2023-03-13T20:58:39.901Z,9.60
2023-03-13T21:01:08.174Z,9.60
2023-03-13T21:03:36.417Z,9.60
2023-03-13T21:06:10.255Z,9.60
2023-03-13T21:08:38.894Z,9.60
2023-03-13T21:11:23.285Z,9.60
2023-03-13T21:13:51.342Z,9.60
2023-03-13T21:16:20.032Z,9.60
2023-03-13T21:18:47.760Z,9.60
2023-03-13T21:21:18.888Z,9.70
2023-03-13T21:23:47.255Z,9.70
2023-03-13T21:26:15.860Z,9.70
2023-03-13T21:28:43.005Z,9.70
2023-03-13T21:31:16.213Z,9.70
2023-03-13T21:33:44.926Z,9.70
2023-03-13T21:36:14.494Z,9.70
2023-03-13T21:38:42.116Z,9.80
2023-03-13T21:41:21.737Z,9.80
2023-03-13T21:43:48.936Z,9.90
2023-03-13T21:46:17.966Z,9.80
2023-03-13T21:51:18.688Z,9.90
2023-03-13T21:53:45.971Z,9.90
2023-03-13T21:56:15.823Z,9.90
2023-03-13T21:58:45.483Z,10.00
2023-03-13T22:01:14.143Z,10.00
2023-03-13T22:03:41.721Z,10.10
2023-03-13T22:06:13.940Z,10.10
2023-03-13T22:08:41.540Z,10.10
2023-03-13T22:11:09.784Z,10.10
2023-03-13T22:13:37.057Z,10.20
2023-03-13T22:16:04.864Z,10.20
2023-03-13T22:18:32.114Z,10.10
2023-03-13T22:21:00.238Z,10.10
2023-03-13T22:23:27.407Z,10.10
2023-03-13T22:25:58.957Z,10.10
2023-03-13T22:28:26.929Z,10.10
2023-03-13T22:30:54.375Z,10.10
2023-03-13T22:33:21.550Z,10.10
2023-03-13T22:35:52.688Z,10.10
2023-03-13T22:38:20.820Z,10.10
2023-03-13T22:40:56.063Z,10.20
2023-03-13T22:43:23.246Z,10.10
2023-03-13T22:45:50.625Z,10.20
2023-03-13T22:48:17.953Z,10.10
2023-03-13T22:50:45.442Z,10.20
2023-03-13T22:53:13.130Z,10.10
2023-03-13T22:55:40.603Z,10.10
2023-03-13T22:58:07.842Z,10.10
2023-03-13T23:00:35.230Z,10.10
2023-03-13T23:03:02.435Z,10.10
2023-03-13T23:05:29.904Z,10.10
2023-03-13T23:07:57.059Z,10.10
2023-03-13T23:10:24.485Z,10.10
2023-03-13T23:12:51.665Z,10.00
2023-03-13T23:15:19.180Z,10.00
2023-03-13T23:17:46.410Z,10.00
2023-03-13T23:20:14.253Z,10.00
2023-03-13T23:22:45.186Z,10.00
2023-03-13T23:25:13.765Z,10.00
2023-03-13T23:27:41.959Z,10.00
2023-03-13T23:30:14.096Z,10.00
2023-03-13T23:32:43.998Z,10.00
2023-03-13T23:35:12.737Z,10.00
2023-03-13T23:37:40.109Z,10.00
2023-03-13T23:40:10.437Z,10.00
2023-03-13T23:42:37.748Z,10.10
2023-03-13T23:45:06.591Z,10.10
2023-03-13T23:47:33.831Z,10.10
2023-03-13T23:50:01.432Z,10.10
2023-03-13T23:52:28.681Z,10.10
2023-03-13T23:54:56.127Z,10.10
2023-03-13T23:57:23.508Z,10.10
2023-03-13T23:59:51.709Z,10.10
